RU-0376 weather

Kalininskiy Airfield
Budyonnovsk, Stavropol Krai, Russia

Public forecast

Using degrees Celsius for public forecast. Weather courtesy of forecast.io.

METAR (pilot weather report)

Closest report is Mineralnyye Vody Airport, 60.5 nm (112.1 km) SW. Retrieved 2019/08/17 12:30 UTC (12 minutes ago):

URMM 171230Z VRB01MPS 9999 -SHRA BKN042CB BKN/// 28/18 Q1010 R30/090070 NOSIG RMK QFE729/0973

TAF (pilot weather forecast)

Closest forecast is Mineralnyye Vody Airport, 60.5 nm (112.1 km) SW. Retrieved 2019/08/17 12:24 UTC (18 minutes ago):

TAF URMM 171100Z 1712/1812 28003G08MPS 9999 BKN030 TX30/1812Z TN20/1803Z TEMPO 1712/1812 VRB07G15MPS 3100 -TSRA BKN015 BKN030CB